sensor_id;sensor_type;location;lat;lon;timestamp;pressure;altitude;pressure_sealevel;temperature;humidity
74346;BME280;62776;50.518;6.732;2023-05-31T00:00:51;97269.06;;;12.62;100.00
74346;BME280;62776;50.518;6.732;2023-05-31T00:03:44;97278.66;;;12.57;100.00
74346;BME280;62776;50.518;6.732;2023-05-31T00:06:53;97276.16;;;12.38;100.00
74346;BME280;62776;50.518;6.732;2023-05-31T00:09:48;97278.72;;;12.46;100.00
74346;BME280;62776;50.518;6.732;2023-05-31T00:12:35;97275.28;;;12.44;100.00
74346;BME280;62776;50.518;6.732;2023-05-31T00:15:22;97275.25;;;12.42;100.00
74346;BME280;62776;50.518;6.732;2023-05-31T00:18:08;97276.16;;;12.40;100.00
74346;BME280;62776;50.518;6.732;2023-05-31T00:20:57;97271.84;;;12.33;100.00
74346;BME280;62776;50.518;6.732;2023-05-31T00:23:43;97270.13;;;12.29;100.00
74346;BME280;62776;50.518;6.732;2023-05-31T00:26:36;97279.69;;;12.25;100.00
74346;BME280;62776;50.518;6.732;2023-05-31T00:29:24;97267.56;;;12.21;100.00
74346;BME280;62776;50.518;6.732;2023-05-31T00:32:16;97269.34;;;12.13;100.00
74346;BME280;62776;50.518;6.732;2023-05-31T00:35:03;97268.47;;;12.13;100.00
74346;BME280;62776;50.518;6.732;2023-05-31T00:37:50;97270.25;;;12.11;100.00
74346;BME280;62776;50.518;6.732;2023-05-31T00:40:35;97268.50;;;12.08;100.00
74346;BME280;62776;50.518;6.732;2023-05-31T00:43:35;97265.06;;;12.02;100.00
74346;BME280;62776;50.518;6.732;2023-05-31T00:46:32;97254.69;;;11.88;100.00
74346;BME280;62776;50.518;6.732;2023-05-31T00:49:20;97265.09;;;11.94;100.00
74346;BME280;62776;50.518;6.732;2023-05-31T00:52:07;97266.00;;;11.89;100.00
74346;BME280;62776;50.518;6.732;2023-05-31T00:54:55;97267.72;;;11.85;100.00
74346;BME280;62776;50.518;6.732;2023-05-31T00:57:47;97271.31;;;11.36;100.00
74346;BME280;62776;50.518;6.732;2023-05-31T01:00:37;97271.28;;;11.69;100.00
74346;BME280;62776;50.518;6.732;2023-05-31T01:03:23;97272.13;;;11.66;100.00
74346;BME280;62776;50.518;6.732;2023-05-31T01:06:15;97266.03;;;11.63;100.00
74346;BME280;62776;50.518;6.732;2023-05-31T01:09:05;97279.97;;;11.59;100.00
74346;BME280;62776;50.518;6.732;2023-05-31T01:12:59;97277.38;;;11.38;100.00
74346;BME280;62776;50.518;6.732;2023-05-31T01:18:59;97270.44;;;11.32;100.00
74346;BME280;62776;50.518;6.732;2023-05-31T01:22:12;97269.63;;;11.29;100.00
74346;BME280;62776;50.518;6.732;2023-05-31T01:25:13;97268.75;;;11.31;100.00
74346;BME280;62776;50.518;6.732;2023-05-31T01:28:07;97273.06;;;11.29;100.00
74346;BME280;62776;50.518;6.732;2023-05-31T01:30:58;97270.47;;;11.27;100.00
74346;BME280;62776;50.518;6.732;2023-05-31T01:33:49;97265.28;;;11.23;100.00
74346;BME280;62776;50.518;6.732;2023-05-31T01:36:42;97267.88;;;11.23;100.00
74346;BME280;62776;50.518;6.732;2023-05-31T01:39:43;97265.28;;;11.18;100.00
74346;BME280;62776;50.518;6.732;2023-05-31T01:42:29;97271.34;;;11.16;100.00
74346;BME280;62776;50.518;6.732;2023-05-31T01:45:17;97266.16;;;11.11;100.00
74346;BME280;62776;50.518;6.732;2023-05-31T01:48:11;97273.09;;;11.08;100.00
74346;BME280;62776;50.518;6.732;2023-05-31T01:51:00;97271.34;;;11.05;100.00
74346;BME280;62776;50.518;6.732;2023-05-31T01:53:49;97273.09;;;11.06;100.00
74346;BME280;62776;50.518;6.732;2023-05-31T01:56:43;97269.66;;;11.01;100.00
74346;BME280;62776;50.518;6.732;2023-05-31T01:59:35;97266.16;;;10.95;100.00
74346;BME280;62776;50.518;6.732;2023-05-31T02:02:29;97279.19;;;10.95;100.00
74346;BME280;62776;50.518;6.732;2023-05-31T02:05:16;97279.16;;;10.93;100.00
74346;BME280;62776;50.518;6.732;2023-05-31T02:08:02;97271.34;;;10.93;100.00
74346;BME280;62776;50.518;6.732;2023-05-31T02:10:55;97273.97;;;10.87;100.00
74346;BME280;62776;50.518;6.732;2023-05-31T02:13:41;97276.59;;;10.87;100.00
74346;BME280;62776;50.518;6.732;2023-05-31T02:16:33;97276.56;;;10.86;100.00
74346;BME280;62776;50.518;6.732;2023-05-31T02:19:21;97277.44;;;10.85;100.00
74346;BME280;62776;50.518;6.732;2023-05-31T02:22:11;97283.50;;;10.85;100.00
74346;BME280;62776;50.518;6.732;2023-05-31T02:24:59;97272.22;;;10.83;100.00
74346;BME280;62776;50.518;6.732;2023-05-31T02:27:45;97282.66;;;10.82;100.00
74346;BME280;62776;50.518;6.732;2023-05-31T02:30:34;97275.72;;;10.79;100.00
74346;BME280;62776;50.518;6.732;2023-05-31T02:33:30;97273.97;;;10.75;100.00
74346;BME280;62776;50.518;6.732;2023-05-31T02:36:41;97282.63;;;10.54;100.00
74346;BME280;62776;50.518;6.732;2023-05-31T02:39:30;97279.06;;;10.22;100.00
74346;BME280;62776;50.518;6.732;2023-05-31T02:42:32;97267.88;;;10.58;100.00
74346;BME280;62776;50.518;6.732;2023-05-31T02:45:19;97267.88;;;10.58;100.00
74346;BME280;62776;50.518;6.732;2023-05-31T02:48:06;97269.63;;;10.56;100.00
74346;BME280;62776;50.518;6.732;2023-05-31T02:50:59;97263.56;;;10.51;100.00
74346;BME280;62776;50.518;6.732;2023-05-31T02:53:46;97262.69;;;10.52;100.00
74346;BME280;62776;50.518;6.732;2023-05-31T02:56:38;97260.84;;;10.07;100.00
74346;BME280;62776;50.518;6.732;2023-05-31T02:59:25;97260.06;;;10.41;100.00
74346;BME280;62776;50.518;6.732;2023-05-31T03:02:12;97260.06;;;10.43;100.00
74346;BME280;62776;50.518;6.732;2023-05-31T03:05:05;97261.81;;;10.41;100.00
74346;BME280;62776;50.518;6.732;2023-05-31T03:07:52;97260.94;;;10.45;100.00
74346;BME280;62776;50.518;6.732;2023-05-31T03:10:39;97256.63;;;10.41;100.00
74346;BME280;62776;50.518;6.732;2023-05-31T03:13:29;97255.75;;;10.40;100.00
74346;BME280;62776;50.518;6.732;2023-05-31T03:16:15;97262.66;;;10.40;100.00
74346;BME280;62776;50.518;6.732;2023-05-31T03:19:08;97259.91;;;9.93;100.00
74346;BME280;62776;50.518;6.732;2023-05-31T03:21:55;97256.59;;;10.24;100.00
74346;BME280;62776;50.518;6.732;2023-05-31T03:24:42;97262.63;;;10.25;100.00
74346;BME280;62776;50.518;6.732;2023-05-31T03:27:28;97260.03;;;10.25;100.00
74346;BME280;62776;50.518;6.732;2023-05-31T03:30:16;97265.22;;;10.23;100.00
74346;BME280;62776;50.518;6.732;2023-05-31T03:33:03;97265.22;;;10.23;100.00
74346;BME280;62776;50.518;6.732;2023-05-31T03:35:49;97253.97;;;10.23;100.00
74346;BME280;62776;50.518;6.732;2023-05-31T03:38:36;97252.25;;;10.22;100.00
74346;BME280;62776;50.518;6.732;2023-05-31T03:41:23;97254.84;;;10.22;100.00
74346;BME280;62776;50.518;6.732;2023-05-31T03:44:11;97260.91;;;10.21;100.00
74346;BME280;62776;50.518;6.732;2023-05-31T03:46:58;97259.16;;;10.20;100.00
74346;BME280;62776;50.518;6.732;2023-05-31T03:49:45;97266.09;;;10.18;100.00
74346;BME280;62776;50.518;6.732;2023-05-31T03:52:32;97266.91;;;10.12;100.00
74346;BME280;62776;50.518;6.732;2023-05-31T03:55:19;97266.91;;;10.12;100.00
74346;BME280;62776;50.518;6.732;2023-05-31T03:58:08;97266.09;;;10.13;100.00
74346;BME280;62776;50.518;6.732;2023-05-31T04:01:00;97266.06;;;10.15;100.00
74346;BME280;62776;50.518;6.732;2023-05-31T04:03:49;97268.66;;;10.19;100.00
74346;BME280;62776;50.518;6.732;2023-05-31T04:06:35;97267.84;;;10.22;100.00
74346;BME280;62776;50.518;6.732;2023-05-31T04:09:22;97260.91;;;10.27;100.00
74346;BME280;62776;50.518;6.732;2023-05-31T04:12:09;97264.38;;;10.30;100.00
74346;BME280;62776;50.518;6.732;2023-05-31T04:14:56;97266.13;;;10.31;100.00
74346;BME280;62776;50.518;6.732;2023-05-31T04:17:42;97269.59;;;10.38;100.00
74346;BME280;62776;50.518;6.732;2023-05-31T04:20:29;97263.53;;;10.45;100.00
74346;BME280;62776;50.518;6.732;2023-05-31T04:23:16;97264.44;;;10.51;100.00
74346;BME280;62776;50.518;6.732;2023-05-31T04:26:03;97268.75;;;10.57;100.00
74346;BME280;62776;50.518;6.732;2023-05-31T04:28:52;97265.28;;;10.61;100.00
74346;BME280;62776;50.518;6.732;2023-05-31T04:31:40;97270.50;;;10.70;100.00
74346;BME280;62776;50.518;6.732;2023-05-31T04:34:28;97264.44;;;10.79;100.00
74346;BME280;62776;50.518;6.732;2023-05-31T04:37:14;97264.44;;;10.86;100.00
74346;BME280;62776;50.518;6.732;2023-05-31T04:40:02;97266.16;;;10.93;100.00
74346;BME280;62776;50.518;6.732;2023-05-31T04:42:52;97268.75;;;11.02;100.00
74346;BME280;62776;50.518;6.732;2023-05-31T04:45:39;97268.75;;;11.11;100.00
74346;BME280;62776;50.518;6.732;2023-05-31T04:48:27;97275.69;;;11.15;100.00
74346;BME280;62776;50.518;6.732;2023-05-31T04:51:15;97273.06;;;11.24;100.00
74346;BME280;62776;50.518;6.732;2023-05-31T04:54:04;97279.16;;;11.31;100.00
74346;BME280;62776;50.518;6.732;2023-05-31T04:56:51;97274.78;;;11.38;100.00
74346;BME280;62776;50.518;6.732;2023-05-31T04:59:39;97271.31;;;11.45;100.00
74346;BME280;62776;50.518;6.732;2023-05-31T05:02:25;97277.34;;;11.48;100.00
74346;BME280;62776;50.518;6.732;2023-05-31T05:05:14;97273.88;;;11.55;100.00
74346;BME280;62776;50.518;6.732;2023-05-31T05:08:04;97277.31;;;11.65;100.00
74346;BME280;62776;50.518;6.732;2023-05-31T05:11:03;97269.53;;;11.72;100.00
74346;BME280;62776;50.518;6.732;2023-05-31T05:13:50;97272.09;;;11.81;100.00
74346;BME280;62776;50.518;6.732;2023-05-31T05:16:45;97269.47;;;11.89;100.00
74346;BME280;62776;50.518;6.732;2023-05-31T05:19:33;97272.00;;;11.98;100.00
74346;BME280;62776;50.518;6.732;2023-05-31T05:22:19;97275.44;;;12.06;100.00
74346;BME280;62776;50.518;6.732;2023-05-31T05:25:19;97276.28;;;12.14;100.00
74346;BME280;62776;50.518;6.732;2023-05-31T05:28:14;97272.78;;;12.21;100.00
74346;BME280;62776;50.518;6.732;2023-05-31T05:31:02;97275.34;;;12.29;100.00
74346;BME280;62776;50.518;6.732;2023-05-31T05:33:51;97270.06;;;12.36;100.00
74346;BME280;62776;50.518;6.732;2023-05-31T05:36:37;97275.25;;;12.42;100.00
74346;BME280;62776;50.518;6.732;2023-05-31T05:39:24;97268.28;;;12.46;100.00
74346;BME280;62776;50.518;6.732;2023-05-31T05:42:10;97274.38;;;12.50;100.00
74346;BME280;62776;50.518;6.732;2023-05-31T05:45:07;97269.16;;;12.50;100.00
74346;BME280;62776;50.518;6.732;2023-05-31T05:47:54;97270.81;;;12.60;100.00
74346;BME280;62776;50.518;6.732;2023-05-31T05:50:53;97267.28;;;12.67;100.00
74346;BME280;62776;50.518;6.732;2023-05-31T05:53:39;97264.63;;;12.73;100.00
74346;BME280;62776;50.518;6.732;2023-05-31T05:56:26;97267.19;;;12.79;100.00
74346;BME280;62776;50.518;6.732;2023-05-31T05:59:12;97270.63;;;12.85;100.00
74346;BME280;62776;50.518;6.732;2023-05-31T06:01:58;97272.34;;;12.88;100.00
74346;BME280;62776;50.518;6.732;2023-05-31T06:04:56;97276.59;;;12.96;100.00
74346;BME280;62776;50.518;6.732;2023-05-31T06:07:44;97268.72;;;13.09;100.00
74346;BME280;62776;50.518;6.732;2023-05-31T06:10:31;97268.66;;;13.15;100.00
74346;BME280;62776;50.518;6.732;2023-05-31T06:13:17;97266.84;;;13.23;100.00
74346;BME280;62776;50.518;6.732;2023-05-31T06:16:20;97275.41;;;13.35;100.00
74346;BME280;62776;50.518;6.732;2023-05-31T06:19:06;97268.38;;;13.45;100.00
74346;BME280;62776;50.518;6.732;2023-05-31T06:21:55;97268.28;;;13.54;100.00
74346;BME280;62776;50.518;6.732;2023-05-31T06:24:49;97271.63;;;13.67;100.00
74346;BME280;62776;50.518;6.732;2023-05-31T06:27:36;97273.22;;;13.80;100.00
74346;BME280;62776;50.518;6.732;2023-05-31T06:30:24;97282.59;;;13.96;100.00
74346;BME280;62776;50.518;6.732;2023-05-31T06:33:11;97283.38;;;14.05;100.00
74346;BME280;62776;50.518;6.732;2023-05-31T06:35:59;97280.56;;;14.19;100.00
74346;BME280;62776;50.518;6.732;2023-05-31T06:38:52;97274.34;;;14.29;100.00
74346;BME280;62776;50.518;6.732;2023-05-31T06:41:39;97287.28;;;14.41;100.00
74346;BME280;62776;50.518;6.732;2023-05-31T06:44:28;97276.66;;;14.50;100.00
74346;BME280;62776;50.518;6.732;2023-05-31T06:47:15;97273.84;;;14.65;100.00
74346;BME280;62776;50.518;6.732;2023-05-31T06:50:02;97271.91;;;14.80;100.00
74346;BME280;62776;50.518;6.732;2023-05-31T06:52:49;97269.94;;;14.94;100.00
74346;BME280;62776;50.518;6.732;2023-05-31T06:55:42;97269.75;;;15.04;100.00
74346;BME280;62776;50.518;6.732;2023-05-31T06:58:30;97270.38;;;15.18;100.00
74346;BME280;62776;50.518;6.732;2023-05-31T07:01:18;97275.44;;;15.27;100.00
74346;BME280;62776;50.518;6.732;2023-05-31T07:04:07;97276.94;;;15.42;100.00
74346;BME280;62776;50.518;6.732;2023-05-31T07:06:53;97274.00;;;15.62;100.00
74346;BME280;62776;50.518;6.732;2023-05-31T07:09:40;97273.69;;;15.78;100.00
74346;BME280;62776;50.518;6.732;2023-05-31T07:12:28;97282.09;;;15.96;100.00
74346;BME280;62776;50.518;6.732;2023-05-31T07:15:14;97272.97;;;16.13;100.00
74346;BME280;62776;50.518;6.732;2023-05-31T07:18:01;97278.69;;;16.32;100.00
74346;BME280;62776;50.518;6.732;2023-05-31T07:20:47;97272.19;;;16.49;100.00
74346;BME280;62776;50.518;6.732;2023-05-31T07:23:35;97270.13;;;16.65;100.00
74346;BME280;62776;50.518;6.732;2023-05-31T07:26:23;97270.66;;;16.79;100.00
74346;BME280;62776;50.518;6.732;2023-05-31T07:29:10;97264.94;;;16.99;100.00
74346;BME280;62776;50.518;6.732;2023-05-31T07:31:56;97268.97;;;17.14;100.00
74346;BME280;62776;50.518;6.732;2023-05-31T07:34:43;97267.72;;;17.28;93.72
74346;BME280;62776;50.518;6.732;2023-05-31T07:37:30;97265.56;;;17.44;95.99
74346;BME280;62776;50.518;6.732;2023-05-31T07:40:18;97266.94;;;17.60;94.41
74346;BME280;62776;50.518;6.732;2023-05-31T07:43:06;97265.69;;;17.73;93.14
74346;BME280;62776;50.518;6.732;2023-05-31T07:45:55;97265.22;;;17.90;93.61
74346;BME280;62776;50.518;6.732;2023-05-31T07:48:48;97274.63;;;17.98;87.01
74346;BME280;62776;50.518;6.732;2023-05-31T07:51:43;97268.34;;;18.04;85.74
74346;BME280;62776;50.518;6.732;2023-05-31T07:54:37;97275.59;;;18.25;89.66
74346;BME280;62776;50.518;6.732;2023-05-31T07:57:24;97277.84;;;18.39;86.09
74346;BME280;62776;50.518;6.732;2023-05-31T08:00:11;97272.47;;;18.42;81.84
74346;BME280;62776;50.518;6.732;2023-05-31T08:03:01;97265.72;;;18.62;85.53
74346;BME280;62776;50.518;6.732;2023-05-31T08:05:48;97271.41;;;18.78;80.83
74346;BME280;62776;50.518;6.732;2023-05-31T08:08:36;97257.03;;;18.88;81.02
74346;BME280;62776;50.518;6.732;2023-05-31T08:11:22;97264.38;;;19.05;78.54
74346;BME280;62776;50.518;6.732;2023-05-31T08:14:10;97253.47;;;19.17;74.70
74346;BME280;62776;50.518;6.732;2023-05-31T08:16:58;97264.44;;;19.29;80.12
74346;BME280;62776;50.518;6.732;2023-05-31T08:19:45;97261.44;;;19.41;74.24
74346;BME280;62776;50.518;6.732;2023-05-31T08:22:33;97255.41;;;19.38;67.97
74346;BME280;62776;50.518;6.732;2023-05-31T08:25:20;97257.66;;;19.49;65.56
74346;BME280;62776;50.518;6.732;2023-05-31T08:28:07;97253.25;;;19.49;72.96
74346;BME280;62776;50.518;6.732;2023-05-31T08:30:54;97247.41;;;19.66;77.81
74346;BME280;62776;50.518;6.732;2023-05-31T08:33:53;97251.81;;;19.65;69.49
74346;BME280;62776;50.518;6.732;2023-05-31T08:36:41;97258.84;;;19.89;60.30
74346;BME280;62776;50.518;6.732;2023-05-31T08:39:28;97246.91;;;20.04;59.13
74346;BME280;62776;50.518;6.732;2023-05-31T08:42:55;97252.97;;;20.06;54.99
74346;BME280;62776;50.518;6.732;2023-05-31T08:45:50;97251.88;;;20.36;58.31
74346;BME280;62776;50.518;6.732;2023-05-31T08:49:05;97248.94;;;20.44;58.54
74346;BME280;62776;50.518;6.732;2023-05-31T08:51:52;97246.03;;;20.73;60.26
74346;BME280;62776;50.518;6.732;2023-05-31T08:54:40;97247.06;;;20.91;56.24
74346;BME280;62776;50.518;6.732;2023-05-31T08:57:30;97242.22;;;21.02;51.29
74346;BME280;62776;50.518;6.732;2023-05-31T09:00:18;97249.06;;;21.07;50.07
74346;BME280;62776;50.518;6.732;2023-05-31T09:03:09;97246.13;;;21.15;48.43
74346;BME280;62776;50.518;6.732;2023-05-31T09:05:56;97255.06;;;21.33;51.52
74346;BME280;62776;50.518;6.732;2023-05-31T09:08:49;97233.59;;;21.40;50.21
74346;BME280;62776;50.518;6.732;2023-05-31T09:11:36;97236.75;;;21.48;50.11
74346;BME280;62776;50.518;6.732;2023-05-31T09:14:26;97243.28;;;21.61;49.18
74346;BME280;62776;50.518;6.732;2023-05-31T09:17:15;97240.34;;;21.67;47.62
74346;BME280;62776;50.518;6.732;2023-05-31T09:20:03;97241.06;;;21.71;45.38
74346;BME280;62776;50.518;6.732;2023-05-31T09:22:51;97233.63;;;21.81;48.24
74346;BME280;62776;50.518;6.732;2023-05-31T09:28:35;97229.78;;;21.88;46.01
74346;BME280;62776;50.518;6.732;2023-05-31T09:31:22;97224.78;;;22.00;46.67
74346;BME280;62776;50.518;6.732;2023-05-31T09:34:28;97221.72;;;21.91;45.21
74346;BME280;62776;50.518;6.732;2023-05-31T09:37:24;97220.31;;;22.02;45.85
74346;BME280;62776;50.518;6.732;2023-05-31T09:40:22;97225.13;;;22.13;43.99
74346;BME280;62776;50.518;6.732;2023-05-31T09:43:08;97219.25;;;22.25;43.58
74346;BME280;62776;50.518;6.732;2023-05-31T09:45:55;97213.75;;;22.29;44.12
74346;BME280;62776;50.518;6.732;2023-05-31T09:48:43;97211.53;;;22.39;45.50
74346;BME280;62776;50.518;6.732;2023-05-31T09:51:31;97209.69;;;22.41;44.39
74346;BME280;62776;50.518;6.732;2023-05-31T09:54:19;97221.47;;;22.34;43.74
74346;BME280;62776;50.518;6.732;2023-05-31T09:57:33;97220.25;;;22.22;45.16
74346;BME280;62776;50.518;6.732;2023-05-31T10:00:26;97206.22;;;22.39;45.14
74346;BME280;62776;50.518;6.732;2023-05-31T10:03:12;97209.25;;;22.50;45.63
74346;BME280;62776;50.518;6.732;2023-05-31T10:06:00;97200.09;;;22.57;44.31
74346;BME280;62776;50.518;6.732;2023-05-31T10:08:48;97215.41;;;22.69;45.84
74346;BME280;62776;50.518;6.732;2023-05-31T10:11:41;97204.28;;;22.80;46.53
74346;BME280;62776;50.518;6.732;2023-05-31T10:14:30;97211.09;;;22.85;45.37
74346;BME280;62776;50.518;6.732;2023-05-31T10:17:22;97212.53;;;22.92;46.51
74346;BME280;62776;50.518;6.732;2023-05-31T10:20:13;97208.25;;;22.90;42.32
74346;BME280;62776;50.518;6.732;2023-05-31T10:23:07;97202.41;;;23.01;45.35
74346;BME280;62776;50.518;6.732;2023-05-31T10:26:16;97191.94;;;22.98;43.29
74346;BME280;62776;50.518;6.732;2023-05-31T10:29:10;97193.00;;;23.12;44.19
74346;BME280;62776;50.518;6.732;2023-05-31T10:32:08;97191.19;;;23.13;42.94
74346;BME280;62776;50.518;6.732;2023-05-31T10:34:56;97195.41;;;23.17;44.61
74346;BME280;62776;50.518;6.732;2023-05-31T10:37:44;97184.94;;;23.14;43.37
74346;BME280;62776;50.518;6.732;2023-05-31T10:40:48;97184.56;;;23.04;43.88
74346;BME280;62776;50.518;6.732;2023-05-31T10:43:48;97187.97;;;23.06;42.12
74346;BME280;62776;50.518;6.732;2023-05-31T10:46:39;97176.06;;;23.15;43.13
74346;BME280;62776;50.518;6.732;2023-05-31T10:49:29;97164.28;;;23.20;42.66
74346;BME280;62776;50.518;6.732;2023-05-31T10:52:23;97175.97;;;23.33;44.74
74346;BME280;62776;50.518;6.732;2023-05-31T10:55:17;97171.13;;;23.43;44.33
74346;BME280;62776;50.518;6.732;2023-05-31T10:58:04;97169.94;;;23.48;40.92
74346;BME280;62776;50.518;6.732;2023-05-31T11:01:02;97169.53;;;23.39;42.22
74346;BME280;62776;50.518;6.732;2023-05-31T11:03:50;97160.31;;;23.29;40.52
74346;BME280;62776;50.518;6.732;2023-05-31T11:06:37;97157.09;;;23.22;40.63
74346;BME280;62776;50.518;6.732;2023-05-31T11:09:26;97149.91;;;23.24;41.50
74346;BME280;62776;50.518;6.732;2023-05-31T11:12:35;97159.13;;;23.34;42.34
74346;BME280;62776;50.518;6.732;2023-05-31T11:15:25;97160.56;;;23.59;40.40
74346;BME280;62776;50.518;6.732;2023-05-31T11:18:26;97152.03;;;23.69;40.92
74346;BME280;62776;50.518;6.732;2023-05-31T11:21:48;97144.38;;;23.46;39.51
74346;BME280;62776;50.518;6.732;2023-05-31T11:24:49;97156.88;;;23.44;40.69
74346;BME280;62776;50.518;6.732;2023-05-31T11:27:38;97157.44;;;23.68;42.45
74346;BME280;62776;50.518;6.732;2023-05-31T11:30:36;97148.00;;;23.62;39.26
74346;BME280;62776;50.518;6.732;2023-05-31T11:33:25;97138.88;;;23.83;37.91
74346;BME280;62776;50.518;6.732;2023-05-31T11:36:30;97150.88;;;23.90;37.02
74346;BME280;62776;50.518;6.732;2023-05-31T11:39:20;97150.25;;;23.85;36.42
74346;BME280;62776;50.518;6.732;2023-05-31T11:42:10;97145.72;;;23.87;36.41
74346;BME280;62776;50.518;6.732;2023-05-31T11:45:10;97146.00;;;23.98;37.42
74346;BME280;62776;50.518;6.732;2023-05-31T11:48:35;97135.06;;;24.04;36.82
74346;BME280;62776;50.518;6.732;2023-05-31T11:51:24;97143.16;;;24.34;37.92
74346;BME280;62776;50.518;6.732;2023-05-31T11:54:11;97136.38;;;24.29;35.75
74346;BME280;62776;50.518;6.732;2023-05-31T11:57:07;97121.16;;;23.99;35.35
74346;BME280;62776;50.518;6.732;2023-05-31T12:00:05;97131.09;;;23.96;37.74
74346;BME280;62776;50.518;6.732;2023-05-31T12:02:58;97137.34;;;24.28;38.88
74346;BME280;62776;50.518;6.732;2023-05-31T12:05:57;97130.75;;;24.35;37.46
74346;BME280;62776;50.518;6.732;2023-05-31T12:08:45;97132.31;;;24.39;35.85
74346;BME280;62776;50.518;6.732;2023-05-31T12:11:31;97123.44;;;24.54;36.77
74346;BME280;62776;50.518;6.732;2023-05-31T12:14:19;97121.81;;;24.67;34.84
74346;BME280;62776;50.518;6.732;2023-05-31T12:17:09;97116.66;;;24.64;35.98
74346;BME280;62776;50.518;6.732;2023-05-31T12:19:56;97115.47;;;24.85;37.08
74346;BME280;62776;50.518;6.732;2023-05-31T12:22:43;97111.31;;;24.95;35.71
74346;BME280;62776;50.518;6.732;2023-05-31T12:25:32;97116.28;;;25.01;37.79
74346;BME280;62776;50.518;6.732;2023-05-31T12:28:20;97117.56;;;25.10;34.29
74346;BME280;62776;50.518;6.732;2023-05-31T12:31:11;97106.34;;;25.19;36.01
74346;BME280;62776;50.518;6.732;2023-05-31T12:34:13;97102.47;;;25.24;34.50
74346;BME280;62776;50.518;6.732;2023-05-31T12:37:09;97104.31;;;25.08;36.08
74346;BME280;62776;50.518;6.732;2023-05-31T12:40:17;97099.78;;;25.10;35.27
74346;BME280;62776;50.518;6.732;2023-05-31T12:43:07;97110.19;;;25.29;35.36
74346;BME280;62776;50.518;6.732;2023-05-31T12:45:53;97100.13;;;25.34;33.97
74346;BME280;62776;50.518;6.732;2023-05-31T12:48:46;97109.84;;;25.35;33.73
74346;BME280;62776;50.518;6.732;2023-05-31T12:51:37;97104.13;;;25.41;34.05
74346;BME280;62776;50.518;6.732;2023-05-31T12:54:25;97087.50;;;25.38;33.19
74346;BME280;62776;50.518;6.732;2023-05-31T12:57:12;97079.97;;;25.44;35.11
74346;BME280;62776;50.518;6.732;2023-05-31T13:00:06;97081.25;;;25.53;35.68
74346;BME280;62776;50.518;6.732;2023-05-31T13:02:56;97070.06;;;25.76;38.43
74346;BME280;62776;50.518;6.732;2023-05-31T13:05:42;97069.06;;;25.77;33.70
74346;BME280;62776;50.518;6.732;2023-05-31T13:08:28;97074.03;;;25.55;34.67
74346;BME280;62776;50.518;6.732;2023-05-31T13:11:15;97073.78;;;25.44;33.13
74346;BME280;62776;50.518;6.732;2023-05-31T13:14:02;97069.84;;;25.51;34.33
74346;BME280;62776;50.518;6.732;2023-05-31T13:16:50;97061.19;;;25.75;33.84
74346;BME280;62776;50.518;6.732;2023-05-31T13:19:37;97064.91;;;26.01;32.38
74346;BME280;62776;50.518;6.732;2023-05-31T13:22:23;97059.72;;;26.26;34.03
74346;BME280;62776;50.518;6.732;2023-05-31T13:25:10;97061.03;;;26.33;32.56
74346;BME280;62776;50.518;6.732;2023-05-31T13:27:59;97063.09;;;26.69;31.63
74346;BME280;62776;50.518;6.732;2023-05-31T13:30:46;97058.56;;;27.23;30.22
74346;BME280;62776;50.518;6.732;2023-05-31T13:33:33;97059.56;;;27.73;29.25
74346;BME280;62776;50.518;6.732;2023-05-31T13:36:25;97051.84;;;28.42;29.02
74346;BME280;62776;50.518;6.732;2023-05-31T13:39:13;97055.28;;;28.68;27.94
74346;BME280;62776;50.518;6.732;2023-05-31T13:42:00;97057.16;;;29.02;28.17
74346;BME280;62776;50.518;6.732;2023-05-31T13:44:47;97037.69;;;29.57;28.07
74346;BME280;62776;50.518;6.732;2023-05-31T13:47:35;97048.53;;;30.22;29.17
74346;BME280;62776;50.518;6.732;2023-05-31T13:50:23;97036.38;;;30.72;26.74
74346;BME280;62776;50.518;6.732;2023-05-31T13:53:10;97038.66;;;31.20;26.28
74346;BME280;62776;50.518;6.732;2023-05-31T13:55:58;97034.88;;;31.32;25.75
74346;BME280;62776;50.518;6.732;2023-05-31T13:58:50;97033.97;;;31.22;25.38
74346;BME280;62776;50.518;6.732;2023-05-31T14:01:37;97032.28;;;31.21;25.19
74346;BME280;62776;50.518;6.732;2023-05-31T14:04:24;97026.19;;;31.19;24.69
74346;BME280;62776;50.518;6.732;2023-05-31T14:07:10;97026.38;;;31.68;25.95
74346;BME280;62776;50.518;6.732;2023-05-31T14:09:40;97029.53;;;32.03;25.12
74346;BME280;62776;50.518;6.732;2023-05-31T14:12:26;97037.56;;;32.34;23.95
74346;BME280;62776;50.518;6.732;2023-05-31T14:15:14;97023.88;;;32.56;24.47
74346;BME280;62776;50.518;6.732;2023-05-31T14:18:01;97027.19;;;33.07;23.81
74346;BME280;62776;50.518;6.732;2023-05-31T14:20:50;97015.28;;;33.85;21.92
74346;BME280;62776;50.518;6.732;2023-05-31T14:23:39;97026.00;;;34.14;22.59
74346;BME280;62776;50.518;6.732;2023-05-31T14:26:26;97018.94;;;34.30;21.62
74346;BME280;62776;50.518;6.732;2023-05-31T14:29:17;97019.09;;;33.46;22.27
74346;BME280;62776;50.518;6.732;2023-05-31T14:32:10;97013.78;;;33.73;21.50
74346;BME280;62776;50.518;6.732;2023-05-31T14:35:01;97002.78;;;34.21;20.97
74346;BME280;62776;50.518;6.732;2023-05-31T14:37:55;96999.31;;;34.28;22.15
74346;BME280;62776;50.518;6.732;2023-05-31T14:40:49;97002.13;;;34.99;21.25
74346;BME280;62776;50.518;6.732;2023-05-31T14:43:37;96997.94;;;35.05;21.19
74346;BME280;62776;50.518;6.732;2023-05-31T14:46:24;96997.66;;;35.08;21.07
74346;BME280;62776;50.518;6.732;2023-05-31T14:49:13;97004.34;;;35.04;21.29
74346;BME280;62776;50.518;6.732;2023-05-31T14:51:59;97005.53;;;35.44;21.87
74346;BME280;62776;50.518;6.732;2023-05-31T14:54:46;96988.84;;;35.75;20.20
74346;BME280;62776;50.518;6.732;2023-05-31T14:57:35;96987.53;;;35.10;20.22
74346;BME280;62776;50.518;6.732;2023-05-31T15:00:24;96983.34;;;34.17;20.85
74346;BME280;62776;50.518;6.732;2023-05-31T15:03:15;96999.41;;;34.36;21.81